Date,TemperatureHighF,TemperatureAvgF,TemperatureLowF,DewpointHighF,DewpointAvgF,DewpointLowF,HumidityHigh,HumidityAvg,HumidityLow,PressureMaxIn,PressureMinIn,WindSpeedMaxMPH,WindSpeedAvgMPH,GustSpeedMaxMPH,PrecipitationSumIn
2013-4-1,70,61,53,60,56,50,99,85,67,30.21,30.11,5,2,14,0.00
2013-4-2,77,63,53,58,56,52,99,80,46,30.15,30.04,6,1,14,0.00
2013-4-3,76,63,55,60,58,55,99,83,53,30.14,30.03,8,2,17,0.00
2013-4-4,69,61,56,60,58,56,99,90,66,30.12,30.03,8,3,15,0.00
2013-4-5,56,55,54,55,55,54,99,99,99,30.11,30.06,2,0,5,0.00
2013-4-6,75,64,53,59,57,53,99,79,52,30.14,29.97,8,2,19,0.00
2013-4-7,64,58,54,59,56,54,99,97,76,30.01,29.84,3,1,7,0.00
2013-4-8,70,59,52,54,46,37,99,64,35,29.88,29.70,8,4,21,0.02
2013-4-9,73,66,53,51,32,8,77,32,10,30.02,29.88,11,3,25,0.06
2013-4-10,81,68,54,54,42,10,96,49,10,30.14,30.00,8,3,21,0.00
2013-4-11,78,62,54,56,50,42,99,68,32,30.04,29.81,6,2,13,0.00
2013-4-12,72,59,53,57,55,52,99,86,53,29.94,29.82,8,1,20,0.00
2013-4-13,66,57,53,61,56,52,99,96,79,29.97,29.88,4,1,8,0.00
2013-4-14,65,59,55,57,56,54,99,89,72,29.92,29.86,4,1,11,0.00
2013-4-15,72,60,48,59,52,47,99,77,52,29.95,29.87,6,2,15,0.00
2013-4-16,65,60,49,49,43,18,94,57,19,30.05,29.93,7,3,17,0.00
2013-4-17,65,59,54,46,32,19,75,39,20,30.17,30.05,5,2,12,0.00
2013-4-18,86,72,55,45,23,5,31,17,10,30.24,30.14,10,3,18,0.06
2013-4-19,83,65,52,55,30,13,96,33,10,30.21,30.00,5,1,15,0.00
2013-4-20,71,59,53,59,57,52,99,94,55,30.03,29.91,3,0,7,0.00
2013-4-21,84,67,58,61,58,55,99,77,37,30.06,29.98,4,0,8,0.00
2013-4-22,78,65,57,58,55,54,99,72,44,30.05,29.94,3,1,12,0.00
2013-4-23,74,61,54,57,56,54,99,85,52,29.99,29.91,6,2,14,0.00
2013-4-24,67,59,53,60,55,50,99,88,67,30.03,29.95,4,1,8,0.00
2013-4-25,76,67,55,57,51,43,92,61,32,30.16,30.02,5,2,13,0.00
2013-4-26,76,61,48,58,52,45,99,75,33,30.20,30.13,6,1,14,0.00
2013-4-27,72,62,55,63,58,55,99,86,60,30.19,30.02,7,2,17,0.00
2013-4-28,73,61,55,61,57,55,99,89,58,30.06,29.90,8,1,12,0.00
2013-4-29,78,61,55,62,58,55,99,90,50,29.95,29.83,4,1,7,0.00
2013-4-30,74,63,57,58,57,55,99,83,56,29.94,29.86,5,1,8,0.00